createdAt,value
2022-09-26T00:01:33.543Z,24.58
2022-09-26T00:04:05.262Z,23.83
2022-09-26T00:06:32.374Z,23.23
2022-09-26T00:08:59.587Z,23.00
2022-09-26T00:11:30.045Z,23.88
2022-09-26T00:14:00.342Z,23.58
2022-09-26T00:16:27.902Z,22.58
2022-09-26T00:18:57.469Z,20.17
2022-09-26T00:21:26.096Z,23.95
2022-09-26T00:23:54.171Z,23.45
2022-09-26T00:26:23.373Z,22.73
2022-09-26T00:28:51.285Z,22.35
2022-09-26T00:31:27.483Z,21.55
2022-09-26T00:33:54.555Z,21.05
2022-09-26T00:36:29.790Z,20.40
2022-09-26T00:39:04.574Z,22.92
2022-09-26T00:41:32.240Z,19.88
2022-09-26T00:44:00.167Z,20.63
2022-09-26T00:46:44.635Z,23.35
2022-09-26T00:49:36.058Z,22.15
2022-09-26T00:52:06.972Z,22.10
2022-09-26T00:54:36.124Z,23.48
2022-09-26T00:57:10.188Z,21.92
2022-09-26T00:59:41.824Z,21.98
2022-09-26T01:02:09.688Z,24.83
2022-09-26T01:04:39.653Z,22.60
2022-09-26T01:07:12.161Z,23.65
2022-09-26T01:09:39.721Z,21.88
2022-09-26T01:12:09.126Z,24.20
2022-09-26T01:14:39.593Z,20.02
2022-09-26T01:17:07.818Z,20.50
2022-09-26T01:19:54.535Z,23.70
2022-09-26T01:22:42.876Z,20.98
2022-09-26T01:25:35.133Z,21.33
2022-09-26T01:28:14.010Z,21.73
2022-09-26T01:30:59.729Z,22.08
2022-09-26T01:33:41.791Z,23.15
2022-09-26T01:36:23.377Z,20.40
2022-09-26T01:39:14.046Z,21.42
2022-09-26T01:41:57.796Z,23.80
2022-09-26T01:44:44.171Z,23.67
2022-09-26T01:47:16.988Z,22.40
2022-09-26T01:49:49.966Z,21.88
2022-09-26T01:52:32.466Z,23.45
2022-09-26T01:55:26.183Z,23.95
2022-09-26T01:58:03.993Z,24.08
2022-09-26T02:00:32.171Z,22.92
2022-09-26T02:03:00.310Z,22.75
2022-09-26T02:05:35.861Z,21.65
2022-09-26T02:08:41.807Z,21.80
2022-09-26T02:11:14.082Z,20.50
2022-09-26T02:13:44.769Z,21.42
2022-09-26T02:16:19.559Z,21.63
2022-09-26T02:18:56.990Z,21.17
2022-09-26T02:21:25.040Z,22.27
2022-09-26T02:23:54.343Z,21.60
2022-09-26T02:26:23.696Z,21.35
2022-09-26T02:28:52.080Z,19.80
2022-09-26T02:31:24.716Z,20.83
2022-09-26T02:33:54.169Z,19.90
2022-09-26T02:36:25.218Z,19.88
2022-09-26T02:38:53.213Z,20.50
2022-09-26T02:42:11.457Z,19.00
2022-09-26T02:45:12.810Z,20.77
2022-09-26T02:47:58.132Z,22.67
2022-09-26T02:50:48.238Z,20.50
2022-09-26T02:53:41.036Z,20.80
2022-09-26T02:56:09.452Z,20.67
2022-09-26T02:58:59.827Z,19.75
2022-09-26T03:01:54.151Z,21.27
2022-09-26T03:04:36.191Z,20.48
2022-09-26T03:07:11.698Z,19.65
2022-09-26T03:09:40.659Z,20.65
2022-09-26T03:12:10.164Z,21.92
2022-09-26T03:14:40.694Z,20.60
2022-09-26T03:17:10.503Z,20.75
2022-09-26T03:19:50.942Z,19.90
2022-09-26T03:22:18.453Z,19.55
2022-09-26T03:24:46.251Z,20.58
2022-09-26T03:27:16.501Z,19.95
2022-09-26T03:29:45.449Z,21.48
2022-09-26T03:32:18.789Z,20.43
2022-09-26T03:34:46.283Z,21.42
2022-09-26T03:37:13.931Z,22.65
2022-09-26T03:39:40.992Z,20.58
2022-09-26T03:42:14.708Z,19.50
2022-09-26T03:44:44.187Z,20.85
2022-09-26T03:47:15.684Z,20.77
2022-09-26T03:49:45.175Z,20.88
2022-09-26T03:52:13.429Z,19.63
2022-09-26T03:54:42.354Z,19.70
2022-09-26T03:57:12.900Z,17.52
2022-09-26T03:59:46.591Z,17.85
2022-09-26T04:02:14.212Z,19.55
2022-09-26T04:04:45.352Z,18.10
2022-09-26T04:07:12.511Z,18.85
2022-09-26T04:09:39.617Z,18.40
2022-09-26T04:12:07.956Z,19.33
2022-09-26T04:14:37.875Z,18.42
2022-09-26T04:17:04.973Z,19.58
2022-09-26T04:22:10.164Z,17.65
2022-09-26T04:24:38.341Z,17.70
2022-09-26T04:27:06.569Z,17.73
2022-09-26T04:29:33.873Z,19.08
2022-09-26T04:32:11.226Z,19.35
2022-09-26T04:35:07.901Z,20.20
2022-09-26T04:37:39.778Z,20.65
2022-09-26T04:40:07.574Z,18.10
2022-09-26T04:42:37.565Z,20.50
2022-09-26T04:45:05.839Z,18.27
2022-09-26T04:47:33.200Z,20.52
2022-09-26T04:50:36.106Z,19.20
2022-09-26T04:53:06.921Z,21.30
2022-09-26T04:55:43.175Z,19.90
2022-09-26T04:58:10.313Z,20.88
2022-09-26T05:00:42.266Z,22.30
2022-09-26T05:03:09.784Z,19.95
2022-09-26T05:05:36.979Z,20.65
2022-09-26T05:08:05.952Z,20.35
2022-09-26T05:10:33.168Z,19.10
2022-09-26T05:13:03.531Z,18.73
2022-09-26T05:15:31.093Z,21.48
2022-09-26T05:17:59.910Z,21.60
2022-09-26T05:20:31.542Z,22.85
2022-09-26T05:23:01.516Z,22.55
2022-09-26T05:25:50.554Z,20.98
2022-09-26T05:28:17.723Z,24.15
2022-09-26T05:30:44.856Z,21.25
2022-09-26T05:33:13.556Z,22.23
2022-09-26T05:35:41.284Z,22.85
2022-09-26T05:38:08.379Z,22.67
2022-09-26T05:40:58.491Z,20.65
2022-09-26T05:43:30.246Z,21.13
2022-09-26T05:45:59.263Z,22.35
2022-09-26T05:48:30.780Z,24.33
2022-09-26T05:51:04.739Z,21.33
2022-09-26T05:53:35.158Z,23.33
2022-09-26T05:56:02.284Z,21.77
2022-09-26T05:58:58.103Z,21.80
2022-09-26T06:01:52.085Z,22.00
2022-09-26T06:04:36.420Z,20.88
2022-09-26T06:07:25.894Z,22.75
2022-09-26T06:09:53.366Z,21.70
2022-09-26T06:12:38.250Z,21.58
2022-09-26T06:15:11.794Z,22.80
2022-09-26T06:17:38.960Z,21.52
2022-09-26T06:20:06.610Z,20.17
2022-09-26T06:22:43.531Z,21.55
2022-09-26T06:25:12.098Z,20.50
2022-09-26T06:27:40.372Z,23.42
2022-09-26T06:30:11.226Z,21.75
2022-09-26T06:32:39.335Z,28.50
2022-09-26T06:35:21.601Z,24.70
2022-09-26T06:38:08.055Z,22.63
2022-09-26T06:40:35.923Z,26.63
2022-09-26T06:43:03.133Z,23.73
2022-09-26T06:46:09.699Z,29.33
2022-09-26T06:48:58.328Z,24.17
2022-09-26T06:51:57.587Z,23.40
2022-09-26T06:54:25.183Z,25.08
2022-09-26T06:56:53.041Z,24.48
2022-09-26T06:59:20.691Z,22.85
2022-09-26T07:01:54.481Z,23.02
2022-09-26T07:04:40.151Z,28.60
2022-09-26T07:07:16.732Z,24.08
2022-09-26T07:09:43.876Z,26.05
2022-09-26T07:12:37.778Z,23.48
2022-09-26T07:15:16.703Z,23.88
2022-09-26T07:17:45.884Z,26.23
2022-09-26T07:20:27.386Z,23.98
2022-09-26T07:23:17.037Z,25.08
2022-09-26T07:25:49.703Z,25.15
2022-09-26T07:28:19.309Z,23.38
2022-09-26T07:30:50.095Z,24.55
2022-09-26T07:33:36.441Z,22.92
2022-09-26T07:36:09.861Z,25.38
2022-09-26T07:38:37.520Z,24.50
2022-09-26T07:41:07.476Z,25.63
2022-09-26T07:46:41.798Z,24.73
2022-09-26T07:49:28.598Z,23.75
2022-09-26T07:52:17.684Z,26.35
2022-09-26T07:55:13.528Z,25.73
2022-09-26T07:57:59.361Z,26.98
2022-09-26T08:00:52.430Z,24.95
2022-09-26T08:03:42.376Z,25.77
2022-09-26T08:06:21.213Z,26.30
2022-09-26T08:08:48.761Z,27.77
2022-09-26T08:11:34.517Z,28.13
2022-09-26T08:14:14.786Z,31.58
2022-09-26T08:16:56.680Z,26.70
2022-09-26T08:19:24.604Z,29.55
2022-09-26T08:21:51.990Z,25.48
2022-09-26T08:24:20.267Z,28.08
2022-09-26T08:27:18.312Z,26.75
2022-09-26T08:29:48.606Z,30.05
2022-09-26T08:32:17.697Z,30.23
2022-09-26T08:34:45.419Z,29.15
2022-09-26T08:37:38.876Z,29.63
2022-09-26T08:41:01.939Z,30.48
2022-09-26T08:44:07.140Z,29.40
2022-09-26T08:47:34.141Z,26.85
2022-09-26T08:50:50.941Z,27.38
2022-09-26T08:53:26.576Z,29.77
2022-09-26T08:55:56.925Z,31.42
2022-09-26T08:58:31.004Z,30.30
2022-09-26T09:01:13.481Z,28.65
2022-09-26T09:04:19.173Z,26.70
2022-09-26T09:06:46.920Z,29.48
2022-09-26T09:09:17.227Z,30.23
2022-09-26T09:12:05.867Z,26.80
2022-09-26T09:15:20.463Z,28.85
2022-09-26T09:18:13.415Z,30.02
2022-09-26T09:21:42.191Z,27.05
2022-09-26T09:25:13.232Z,26.83
2022-09-26T09:28:08.333Z,28.42
2022-09-26T09:30:51.760Z,27.67
2022-09-26T09:33:41.780Z,23.90
2022-09-26T09:36:27.745Z,27.05
2022-09-26T09:39:28.672Z,25.00
2022-09-26T09:42:28.211Z,21.95
2022-09-26T09:45:05.652Z,26.38
2022-09-26T09:47:38.529Z,26.98
2022-09-26T09:50:30.835Z,25.88
2022-09-26T09:53:53.231Z,27.00
2022-09-26T09:56:29.178Z,25.73
2022-09-26T09:59:20.987Z,25.30
2022-09-26T10:02:34.132Z,25.50
2022-09-26T10:05:35.510Z,26.17
2022-09-26T10:08:04.869Z,26.60
2022-09-26T10:11:24.248Z,28.05
2022-09-26T10:14:03.436Z,27.23
2022-09-26T10:17:12.045Z,27.27
2022-09-26T10:19:56.757Z,29.10
2022-09-26T10:22:37.255Z,30.08
2022-09-26T10:25:08.989Z,30.48
2022-09-26T10:27:42.178Z,29.15
2022-09-26T10:30:19.482Z,32.50
2022-09-26T10:32:56.735Z,30.50
2022-09-26T10:35:45.127Z,28.70
2022-09-26T10:38:29.821Z,32.70
2022-09-26T10:41:23.141Z,32.85
2022-09-26T10:43:56.259Z,31.45
2022-09-26T10:46:47.676Z,32.42
2022-09-26T10:49:59.219Z,29.70
2022-09-26T10:53:09.104Z,25.25
2022-09-26T10:55:44.015Z,26.40
2022-09-26T10:58:22.501Z,27.48
2022-09-26T11:00:54.116Z,26.15
2022-09-26T11:03:40.344Z,27.20
2022-09-26T11:06:35.930Z,23.30
2022-09-26T11:09:23.451Z,23.58
2022-09-26T11:12:27.298Z,25.25
2022-09-26T11:14:59.743Z,23.55
2022-09-26T11:17:45.276Z,23.60
2022-09-26T11:20:20.740Z,25.05
2022-09-26T11:23:32.504Z,24.67
2022-09-26T11:26:09.167Z,26.70
2022-09-26T11:29:03.935Z,26.33
2022-09-26T11:31:43.018Z,26.20
2022-09-26T11:34:37.123Z,27.17
2022-09-26T11:37:43.571Z,28.30
2022-09-26T11:40:29.856Z,24.40
2022-09-26T11:43:13.686Z,25.70
2022-09-26T11:46:15.429Z,25.25
2022-09-26T11:49:20.567Z,22.42
2022-09-26T11:52:49.206Z,24.05
2022-09-26T11:55:31.381Z,20.40
2022-09-26T11:58:20.709Z,16.92
2022-09-26T12:01:20.422Z,18.67
2022-09-26T12:04:29.232Z,15.65
2022-09-26T12:07:18.080Z,16.70
2022-09-26T12:10:06.350Z,16.98
2022-09-26T12:12:49.725Z,17.65
2022-09-26T12:15:55.233Z,19.65
2022-09-26T12:18:31.929Z,17.95
2022-09-26T12:21:20.236Z,18.30
2022-09-26T12:23:54.382Z,19.42
2022-09-26T12:26:34.800Z,19.40
2022-09-26T12:29:27.480Z,19.02
2022-09-26T12:32:00.668Z,18.17
2022-09-26T12:34:56.310Z,16.67
2022-09-26T12:37:41.933Z,15.85
2022-09-26T12:40:33.099Z,13.30
2022-09-26T12:43:14.093Z,16.73
2022-09-26T12:45:57.191Z,15.02
2022-09-26T12:48:31.386Z,14.13
2022-09-26T12:51:20.568Z,15.68
2022-09-26T12:54:16.051Z,15.35
2022-09-26T12:57:05.144Z,15.98
2022-09-26T12:59:38.966Z,13.63
2022-09-26T13:02:12.189Z,14.52
2022-09-26T13:04:58.871Z,13.15
2022-09-26T13:07:46.995Z,12.05
2022-09-26T13:10:38.086Z,13.55
2022-09-26T13:13:38.525Z,12.27
2022-09-26T13:16:13.578Z,11.45
2022-09-26T13:18:46.781Z,12.23
2022-09-26T13:21:19.610Z,11.20
2022-09-26T13:24:00.705Z,10.75
2022-09-26T13:26:33.956Z,10.57
2022-09-26T13:29:17.191Z,10.63
2022-09-26T13:32:06.668Z,10.27
2022-09-26T13:34:39.074Z,9.57
2022-09-26T13:37:22.782Z,8.73
2022-09-26T13:40:03.538Z,9.40
2022-09-26T13:42:48.013Z,8.23
2022-09-26T13:45:36.396Z,8.63
2022-09-26T13:48:34.749Z,7.50
2022-09-26T13:51:24.589Z,7.38
2022-09-26T13:54:03.927Z,7.47
2022-09-26T13:56:35.008Z,6.75
2022-09-26T13:59:11.299Z,7.88
2022-09-26T14:01:58.506Z,6.90
2022-09-26T14:04:36.222Z,6.90
2022-09-26T14:07:29.284Z,6.50
2022-09-26T14:10:03.085Z,6.30
2022-09-26T14:12:53.443Z,6.32
2022-09-26T14:15:28.440Z,5.78
2022-09-26T14:18:45.857Z,6.43
2022-09-26T14:21:35.687Z,5.28
2022-09-26T14:24:21.005Z,4.10
2022-09-26T14:27:24.473Z,4.03
2022-09-26T14:30:13.842Z,3.88
2022-09-26T14:32:46.937Z,4.53
2022-09-26T14:35:20.720Z,4.43
2022-09-26T14:37:50.732Z,4.50
2022-09-26T14:40:36.730Z,4.78
2022-09-26T14:43:13.797Z,4.30
2022-09-26T14:45:45.519Z,4.72
2022-09-26T14:48:15.527Z,4.63
2022-09-26T14:50:50.209Z,5.05
2022-09-26T14:53:42.501Z,5.22
2022-09-26T14:56:16.478Z,5.07
2022-09-26T14:58:48.621Z,6.30
2022-09-26T15:01:21.749Z,5.22
2022-09-26T15:04:03.213Z,5.60
2022-09-26T15:06:35.754Z,4.88
2022-09-26T15:09:13.429Z,5.40
2022-09-26T15:11:46.696Z,5.65
2022-09-26T15:14:24.715Z,5.00
2022-09-26T15:16:55.188Z,4.05
2022-09-26T15:19:30.382Z,3.92
2022-09-26T15:22:02.775Z,4.82
2022-09-26T15:24:35.552Z,5.65
2022-09-26T15:27:27.407Z,5.18
2022-09-26T15:30:03.325Z,5.22
2022-09-26T15:32:33.080Z,5.43
2022-09-26T15:35:03.599Z,5.50
2022-09-26T15:37:33.969Z,5.55
2022-09-26T15:40:22.947Z,6.22
2022-09-26T15:43:08.176Z,6.30
2022-09-26T15:45:47.991Z,5.95
2022-09-26T15:48:21.192Z,6.53
2022-09-26T15:50:55.430Z,6.55
2022-09-26T15:53:43.682Z,6.15
2022-09-26T15:56:19.715Z,6.35
2022-09-26T15:58:49.372Z,5.55
2022-09-26T16:01:19.185Z,5.88
2022-09-26T16:04:16.046Z,6.38
2022-09-26T16:06:57.126Z,7.10
2022-09-26T16:09:24.130Z,7.32
2022-09-26T16:11:57.016Z,7.57
2022-09-26T16:14:46.504Z,6.75
2022-09-26T16:17:36.632Z,6.50
2022-09-26T16:20:15.767Z,7.20
2022-09-26T16:22:45.848Z,6.88
2022-09-26T16:25:16.020Z,7.05
2022-09-26T16:27:43.806Z,8.45
2022-09-26T16:30:25.669Z,7.55
2022-09-26T16:33:22.054Z,6.78
2022-09-26T16:35:49.388Z,6.25
2022-09-26T16:38:24.063Z,7.05
2022-09-26T16:40:56.535Z,6.65
2022-09-26T16:43:34.494Z,6.18
2022-09-26T16:46:17.673Z,6.32
2022-09-26T16:48:56.930Z,6.60
2022-09-26T16:51:30.925Z,6.63
2022-09-26T16:54:20.663Z,7.75
2022-09-26T16:56:53.513Z,7.63
2022-09-26T16:59:28.852Z,7.90
2022-09-26T17:01:59.207Z,8.18
2022-09-26T17:04:36.117Z,7.22
2022-09-26T17:07:24.131Z,9.10
2022-09-26T17:09:51.161Z,9.55
2022-09-26T17:12:21.806Z,7.72
2022-09-26T17:14:55.405Z,6.93
2022-09-26T17:17:25.857Z,7.32
2022-09-26T17:19:59.037Z,7.95
2022-09-26T17:22:27.036Z,8.98
2022-09-26T17:24:54.730Z,7.85
2022-09-26T17:27:27.181Z,9.07
2022-09-26T17:29:59.776Z,8.30
2022-09-26T17:32:36.888Z,8.35
2022-09-26T17:35:12.463Z,8.10
2022-09-26T17:37:39.635Z,8.63
2022-09-26T17:40:17.110Z,9.80
2022-09-26T17:42:47.675Z,9.93
2022-09-26T17:45:14.936Z,9.25
2022-09-26T17:47:42.125Z,12.70
2022-09-26T17:50:17.014Z,12.70
2022-09-26T17:52:44.441Z,10.95
2022-09-26T17:55:12.542Z,10.70
2022-09-26T17:57:41.836Z,9.95
2022-09-26T18:00:13.241Z,10.15
2022-09-26T18:02:44.055Z,37.17
2022-09-26T18:05:26.798Z,28.73
2022-09-26T18:07:57.735Z,20.30
2022-09-26T18:10:34.578Z,17.23
2022-09-26T18:13:08.238Z,17.52
2022-09-26T18:15:39.362Z,16.60
2022-09-26T18:18:14.574Z,15.30
2022-09-26T18:20:41.891Z,14.68
2022-09-26T18:23:16.518Z,16.02
2022-09-26T18:25:47.337Z,15.85
2022-09-26T18:28:17.275Z,14.77
2022-09-26T18:30:48.250Z,14.45
2022-09-26T18:33:16.909Z,15.57
2022-09-26T18:35:45.555Z,16.42
2022-09-26T18:38:16.002Z,15.48
2022-09-26T18:40:50.567Z,19.05
2022-09-26T18:43:20.876Z,17.92
2022-09-26T18:45:48.253Z,19.33
2022-09-26T18:48:27.479Z,18.25
2022-09-26T18:50:55.010Z,15.13
2022-09-26T18:53:23.823Z,17.08
2022-09-26T18:56:09.317Z,15.50
2022-09-26T18:58:36.508Z,16.10
2022-09-26T19:01:15.421Z,17.95
2022-09-26T19:03:46.190Z,17.70
2022-09-26T19:06:23.390Z,16.17
2022-09-26T19:08:56.727Z,15.45
2022-09-26T19:11:25.445Z,18.37
2022-09-26T19:13:55.265Z,17.05
2022-09-26T19:16:23.602Z,15.63
2022-09-26T19:18:51.253Z,16.27
2022-09-26T19:21:51.802Z,16.27
2022-09-26T19:24:24.915Z,15.48
2022-09-26T19:26:57.980Z,14.20
2022-09-26T19:29:33.887Z,15.80
2022-09-26T19:32:02.618Z,15.95
2022-09-26T19:34:32.751Z,16.38
2022-09-26T19:37:01.549Z,15.52
2022-09-26T19:39:28.628Z,15.50
2022-09-26T19:41:55.773Z,19.50
2022-09-26T19:44:24.534Z,21.73
2022-09-26T19:46:51.648Z,19.30
2022-09-26T19:49:19.962Z,25.23
2022-09-26T19:51:47.626Z,21.00
2022-09-26T19:54:18.139Z,23.23
2022-09-26T19:56:46.815Z,20.23
2022-09-26T19:59:16.890Z,22.38
2022-09-26T20:01:46.673Z,24.08
2022-09-26T20:04:16.286Z,21.50
2022-09-26T20:06:44.034Z,24.67
2022-09-26T20:09:17.151Z,22.38
2022-09-26T20:11:44.838Z,23.08
2022-09-26T20:14:23.319Z,23.88
2022-09-26T20:16:51.917Z,20.35
2022-09-26T20:19:35.123Z,20.73
2022-09-26T20:22:05.413Z,22.75
2022-09-26T20:24:36.768Z,21.58
2022-09-26T20:27:07.529Z,20.95
2022-09-26T20:30:19.025Z,21.00
2022-09-26T20:32:46.246Z,21.50
2022-09-26T20:35:17.932Z,21.58
2022-09-26T20:37:45.221Z,23.45
2022-09-26T20:40:18.298Z,20.83
2022-09-26T20:42:50.320Z,25.63
2022-09-26T20:45:25.569Z,24.65
2022-09-26T20:47:52.613Z,23.27
2022-09-26T20:50:48.936Z,21.05
2022-09-26T20:53:21.371Z,23.13
2022-09-26T20:55:48.916Z,24.92
2022-09-26T20:58:16.089Z,25.83
2022-09-26T21:00:44.515Z,26.38
2022-09-26T21:03:13.334Z,26.75
2022-09-26T21:05:40.459Z,26.92
2022-09-26T21:08:23.984Z,27.33
2022-09-26T21:10:51.017Z,29.45
2022-09-26T21:13:18.110Z,28.55
2022-09-26T21:15:45.330Z,25.73
2022-09-26T21:18:28.509Z,27.48
2022-09-26T21:21:02.222Z,26.65
2022-09-26T21:23:43.662Z,24.48
2022-09-26T21:26:24.159Z,25.58
2022-09-26T21:28:52.826Z,24.83
2022-09-26T21:31:29.884Z,24.08
2022-09-26T21:33:59.305Z,23.30
2022-09-26T21:36:35.163Z,24.88
2022-09-26T21:39:03.389Z,24.65
2022-09-26T21:41:32.875Z,23.77
2022-09-26T21:44:43.515Z,26.48
2022-09-26T21:47:12.466Z,24.17
2022-09-26T21:49:39.564Z,26.08
2022-09-26T21:52:15.261Z,25.73
2022-09-26T21:54:44.887Z,25.15
2022-09-26T21:57:19.735Z,26.05
2022-09-26T21:59:50.746Z,24.58
2022-09-26T22:02:17.891Z,28.02
2022-09-26T22:04:45.074Z,24.98
2022-09-26T22:07:12.125Z,25.15
2022-09-26T22:09:39.284Z,25.05
2022-09-26T22:12:06.515Z,24.10
2022-09-26T22:14:33.678Z,25.30
2022-09-26T22:17:00.897Z,23.55
2022-09-26T22:19:32.903Z,25.08
2022-09-26T22:22:01.095Z,23.60
2022-09-26T22:24:28.508Z,22.60
2022-09-26T22:26:55.793Z,24.08
2022-09-26T22:29:22.931Z,25.05
2022-09-26T22:31:49.996Z,24.20
2022-09-26T22:34:17.086Z,22.02
2022-09-26T22:36:44.128Z,22.27
2022-09-26T22:39:11.245Z,24.00
2022-09-26T22:41:38.370Z,25.13
2022-09-26T22:44:05.626Z,22.42
2022-09-26T22:46:34.418Z,23.10
2022-09-26T22:49:01.549Z,20.88
2022-09-26T22:51:29.085Z,23.13
2022-09-26T22:53:56.307Z,24.88
2022-09-26T22:56:23.530Z,22.00
2022-09-26T22:58:52.248Z,24.98
2022-09-26T23:01:24.719Z,22.98
2022-09-26T23:03:53.115Z,24.20
2022-09-26T23:06:21.736Z,24.40
2022-09-26T23:08:49.065Z,25.75
2022-09-26T23:11:18.416Z,24.92
2022-09-26T23:13:46.408Z,26.25
2022-09-26T23:16:17.258Z,27.50
2022-09-26T23:18:45.224Z,26.45
2022-09-26T23:21:21.429Z,28.85
2022-09-26T23:23:51.622Z,25.45
2022-09-26T23:26:22.205Z,27.10
2022-09-26T23:28:50.364Z,28.17
2022-09-26T23:31:17.877Z,24.80
2022-09-26T23:33:45.416Z,23.33
2022-09-26T23:36:13.346Z,25.67
2022-09-26T23:38:41.120Z,24.67
2022-09-26T23:41:10.499Z,27.83
2022-09-26T23:43:38.067Z,28.23
2022-09-26T23:46:05.559Z,26.20
2022-09-26T23:48:32.836Z,28.15
2022-09-26T23:51:00.106Z,29.67
2022-09-26T23:53:27.419Z,23.92
2022-09-26T23:56:05.946Z,25.83
2022-09-26T23:58:33.376Z,27.30
